Time,TemperatureF,DewpointF,PressureIn,WindDirection,WindDirectionDegrees,WindSpeedMPH,WindSpeedGustMPH,Humidity,HourlyPrecipIn,Conditions,Clouds,dailyrainin,SoftwareType,DateUTC
2013-04-30 00:01:00,45.7,39.0,30.24,SE,135,4.4,5.4,79,0.00,,,0.00,Rainwise IP-100,2013-04-30 04:01:00,
2013-04-30 00:05:00,45.7,39.0,30.24,SE,135,3.0,6.8,79,0.00,,,0.00,Rainwise IP-100,2013-04-30 04:05:00,
2013-04-30 00:10:00,45.7,39.0,30.24,ESE,112,4.4,7.2,79,0.00,,,0.00,Rainwise IP-100,2013-04-30 04:10:00,
2013-04-30 00:15:00,45.6,39.0,30.24,SSE,157,3.5,6.5,79,0.00,,,0.00,Rainwise IP-100,2013-04-30 04:15:00,
2013-04-30 00:20:00,45.5,39.0,30.24,SE,135,3.5,5.6,78,0.00,,,0.00,Rainwise IP-100,2013-04-30 04:20:00,
2013-04-30 00:26:00,45.5,39.0,30.24,SSE,157,1.4,6.3,78,0.00,,,0.00,Rainwise IP-100,2013-04-30 04:26:00,
2013-04-30 00:31:00,45.6,39.0,30.24,SE,135,2.6,6.5,78,0.00,,,0.00,Rainwise IP-100,2013-04-30 04:31:00,
2013-04-30 00:36:00,45.6,39.0,30.24,ESE,112,2.1,5.6,78,0.00,,,0.00,Rainwise IP-100,2013-04-30 04:36:00,
2013-04-30 00:41:00,45.5,39.0,30.24,SSE,157,1.9,6.5,79,0.00,,,0.00,Rainwise IP-100,2013-04-30 04:41:00,
2013-04-30 00:46:00,45.5,39.0,30.24,SE,135,3.5,6.3,79,0.00,,,0.00,Rainwise IP-100,2013-04-30 04:46:00,
2013-04-30 00:51:00,45.5,39.0,30.24,SE,135,1.9,4.9,79,0.00,,,0.00,Rainwise IP-100,2013-04-30 04:51:00,
2013-04-30 00:56:00,45.5,39.0,30.24,SSE,157,1.6,3.7,79,0.00,,,0.00,Rainwise IP-100,2013-04-30 04:56:00,
2013-04-30 01:02:00,45.3,39.0,30.24,South,180,0.0,1.9,79,0.00,,,0.00,Rainwise IP-100,2013-04-30 05:02:00,
2013-04-30 01:07:00,45.3,38.0,30.24,SW,225,0.0,0.0,78,0.00,,,0.00,Rainwise IP-100,2013-04-30 05:07:00,
2013-04-30 01:12:00,45.3,38.0,30.24,NW,315,2.1,2.6,77,0.00,,,0.00,Rainwise IP-100,2013-04-30 05:12:00,
2013-04-30 01:17:00,45.2,38.0,30.23,NNW,337,1.2,3.0,77,0.00,,,0.00,Rainwise IP-100,2013-04-30 05:17:00,
2013-04-30 01:22:00,44.8,38.0,30.23,NNW,337,1.2,1.9,78,0.00,,,0.00,Rainwise IP-100,2013-04-30 05:22:00,
2013-04-30 01:27:00,44.6,38.0,30.23,NNW,337,0.0,1.4,78,0.00,,,0.00,Rainwise IP-100,2013-04-30 05:27:00,
2013-04-30 01:32:00,44.6,39.0,30.23,NE,45,2.6,2.6,79,0.00,,,0.00,Rainwise IP-100,2013-04-30 05:32:00,
2013-04-30 01:37:00,44.8,39.0,30.23,ENE,67,2.6,3.3,80,0.00,,,0.00,Rainwise IP-100,2013-04-30 05:37:00,
2013-04-30 01:43:00,44.7,39.0,30.23,ENE,67,2.1,2.8,80,0.00,,,0.00,Rainwise IP-100,2013-04-30 05:43:00,
2013-04-30 01:48:00,44.8,39.0,30.23,ENE,67,2.1,2.3,81,0.00,,,0.00,Rainwise IP-100,2013-04-30 05:48:00,
2013-04-30 01:53:00,45.2,39.0,30.23,ENE,67,1.9,2.3,80,0.00,,,0.00,Rainwise IP-100,2013-04-30 05:53:00,
2013-04-30 01:58:00,45.7,39.0,30.23,ENE,67,2.1,2.3,79,0.00,,,0.00,Rainwise IP-100,2013-04-30 05:58:00,
2013-04-30 02:03:00,46.2,39.0,30.23,ESE,112,1.4,2.3,77,0.00,,,0.00,Rainwise IP-100,2013-04-30 06:03:00,
2013-04-30 02:08:00,46.6,39.0,30.23,ESE,112,1.6,2.1,74,0.00,,,0.00,Rainwise IP-100,2013-04-30 06:08:00,
2013-04-30 02:13:00,46.7,38.0,30.23,ESE,112,1.2,1.9,73,0.00,,,0.00,Rainwise IP-100,2013-04-30 06:13:00,
2013-04-30 02:18:00,46.9,38.0,30.23,ESE,112,1.6,1.9,72,0.00,,,0.00,Rainwise IP-100,2013-04-30 06:18:00,
2013-04-30 02:24:00,47.1,38.0,30.23,ESE,112,0.0,1.6,71,0.00,,,0.00,Rainwise IP-100,2013-04-30 06:24:00,
2013-04-30 02:29:00,47.0,37.0,30.23,ESE,112,1.2,1.9,70,0.00,,,0.00,Rainwise IP-100,2013-04-30 06:29:00,
2013-04-30 02:34:00,46.9,38.0,30.23,ESE,112,1.4,1.9,71,0.00,,,0.00,Rainwise IP-100,2013-04-30 06:34:00,
2013-04-30 02:39:00,46.9,38.0,30.23,ESE,112,1.9,2.3,72,0.00,,,0.00,Rainwise IP-100,2013-04-30 06:39:00,
2013-04-30 02:44:00,46.9,38.0,30.23,ESE,112,1.4,2.6,72,0.00,,,0.00,Rainwise IP-100,2013-04-30 06:44:00,
2013-04-30 02:49:00,46.8,38.0,30.23,ESE,112,1.4,2.3,72,0.00,,,0.00,Rainwise IP-100,2013-04-30 06:49:00,
2013-04-30 02:54:00,46.6,38.0,30.23,SE,135,1.4,2.6,73,0.00,,,0.00,Rainwise IP-100,2013-04-30 06:54:00,
2013-04-30 02:59:00,46.5,39.0,30.23,SE,135,1.9,2.8,74,0.00,,,0.00,Rainwise IP-100,2013-04-30 06:59:00,
2013-04-30 03:04:00,46.5,39.0,30.23,SE,135,1.4,2.6,74,0.00,,,0.00,Rainwise IP-100,2013-04-30 07:04:00,
2013-04-30 03:10:00,46.5,39.0,30.23,SE,135,1.6,2.1,74,0.00,,,0.00,Rainwise IP-100,2013-04-30 07:10:00,
2013-04-30 03:15:00,46.4,38.0,30.23,SE,135,0.0,1.6,74,0.00,,,0.00,Rainwise IP-100,2013-04-30 07:15:00,
2013-04-30 03:20:00,46.3,38.0,30.23,SE,135,0.0,0.0,74,0.00,,,0.00,Rainwise IP-100,2013-04-30 07:20:00,
2013-04-30 03:25:00,46.1,38.0,30.23,SE,135,0.0,0.0,74,0.00,,,0.00,Rainwise IP-100,2013-04-30 07:25:00,
2013-04-30 03:30:00,45.7,38.0,30.23,SE,135,0.0,0.0,74,0.00,,,0.00,Rainwise IP-100,2013-04-30 07:30:00,
2013-04-30 03:35:00,45.8,38.0,30.23,East,90,2.3,2.6,73,0.00,,,0.00,Rainwise IP-100,2013-04-30 07:35:00,
2013-04-30 03:40:00,46.2,38.0,30.23,East,90,2.8,3.5,73,0.00,,,0.00,Rainwise IP-100,2013-04-30 07:40:00,
2013-04-30 03:46:00,46.2,38.0,30.23,East,90,2.6,3.5,73,0.00,,,0.00,Rainwise IP-100,2013-04-30 07:46:00,
2013-04-30 03:51:00,46.4,37.0,30.23,East,90,2.1,3.0,72,0.00,,,0.00,Rainwise IP-100,2013-04-30 07:51:00,
2013-04-30 03:56:00,46.8,37.0,30.24,ESE,112,1.9,3.3,70,0.00,,,0.00,Rainwise IP-100,2013-04-30 07:56:00,
2013-04-30 04:01:00,47.0,37.0,30.24,ESE,112,3.3,3.3,69,0.00,,,0.00,Rainwise IP-100,2013-04-30 08:01:00,
2013-04-30 04:06:00,47.2,37.0,30.24,ESE,112,2.8,3.7,69,0.00,,,0.00,Rainwise IP-100,2013-04-30 08:06:00,
2013-04-30 04:11:00,47.3,38.0,30.24,ESE,112,3.0,4.0,69,0.00,,,0.00,Rainwise IP-100,2013-04-30 08:11:00,
2013-04-30 04:16:00,47.2,37.0,30.24,East,90,2.8,4.0,69,0.00,,,0.00,Rainwise IP-100,2013-04-30 08:16:00,
2013-04-30 04:21:00,47.1,37.0,30.24,ESE,112,2.6,4.2,69,0.00,,,0.00,Rainwise IP-100,2013-04-30 08:21:00,
2013-04-30 04:27:00,46.9,37.0,30.24,ESE,112,3.3,4.0,69,0.00,,,0.00,Rainwise IP-100,2013-04-30 08:27:00,
2013-04-30 04:32:00,46.8,37.0,30.24,ESE,112,3.5,4.0,68,0.00,,,0.00,Rainwise IP-100,2013-04-30 08:32:00,
2013-04-30 04:37:00,46.6,37.0,30.24,ESE,112,4.2,4.2,69,0.00,,,0.00,Rainwise IP-100,2013-04-30 08:37:00,
2013-04-30 04:42:00,46.3,37.0,30.24,ESE,112,3.0,4.9,70,0.00,,,0.00,Rainwise IP-100,2013-04-30 08:42:00,
2013-04-30 04:47:00,46.3,37.0,30.25,ESE,112,2.6,4.7,71,0.00,,,0.00,Rainwise IP-100,2013-04-30 08:47:00,
2013-04-30 04:52:00,46.4,37.0,30.24,ESE,112,2.1,4.2,70,0.00,,,0.00,Rainwise IP-100,2013-04-30 08:52:00,
2013-04-30 04:57:00,46.5,37.0,30.25,East,90,2.6,4.0,69,0.00,,,0.00,Rainwise IP-100,2013-04-30 08:57:00,
2013-04-30 05:03:00,46.6,36.0,30.25,ESE,112,3.5,4.0,67,0.00,,,0.00,Rainwise IP-100,2013-04-30 09:03:00,
2013-04-30 05:08:00,46.6,36.0,30.25,East,90,4.0,4.4,66,0.00,,,0.00,Rainwise IP-100,2013-04-30 09:08:00,
2013-04-30 05:13:00,46.6,35.0,30.25,East,90,2.6,4.4,64,0.00,,,0.00,Rainwise IP-100,2013-04-30 09:13:00,
2013-04-30 05:18:00,46.7,35.0,30.25,East,90,2.6,3.5,63,0.00,,,0.00,Rainwise IP-100,2013-04-30 09:18:00,
2013-04-30 05:23:00,46.8,35.0,30.26,East,90,2.8,3.0,62,0.00,,,0.00,Rainwise IP-100,2013-04-30 09:23:00,
2013-04-30 05:28:00,46.6,35.0,30.26,ENE,67,3.7,4.2,63,0.00,,,0.00,Rainwise IP-100,2013-04-30 09:28:00,
2013-04-30 05:33:00,46.0,35.0,30.25,ENE,67,3.5,4.2,66,0.00,,,0.00,Rainwise IP-100,2013-04-30 09:33:00,
2013-04-30 05:38:00,45.1,36.0,30.25,ENE,67,4.7,5.4,70,0.00,,,0.00,Rainwise IP-100,2013-04-30 09:38:00,
2013-04-30 05:44:00,44.4,36.0,30.25,ENE,67,4.7,6.5,72,0.00,,,0.00,Rainwise IP-100,2013-04-30 09:44:00,
2013-04-30 05:49:00,44.0,36.0,30.26,ENE,67,6.3,7.5,74,0.00,,,0.00,Rainwise IP-100,2013-04-30 09:49:00,
2013-04-30 05:54:00,43.8,37.0,30.26,ENE,67,5.1,7.5,75,0.00,,,0.00,Rainwise IP-100,2013-04-30 09:54:00,
2013-04-30 05:59:00,44.0,37.0,30.26,ENE,67,5.1,7.0,76,0.00,,,0.00,Rainwise IP-100,2013-04-30 09:59:00,
2013-04-30 06:04:00,44.2,37.0,30.26,East,90,4.2,8.2,76,0.00,,,0.00,Rainwise IP-100,2013-04-30 10:04:00,
2013-04-30 06:09:00,44.5,38.0,30.26,ENE,67,3.7,7.5,76,0.00,,,0.00,Rainwise IP-100,2013-04-30 10:09:00,
2013-04-30 06:14:00,44.7,38.0,30.26,ENE,67,6.5,6.8,76,0.00,,,0.00,Rainwise IP-100,2013-04-30 10:14:00,
2013-04-30 06:19:00,44.9,38.0,30.26,ENE,67,4.4,6.5,75,0.00,,,0.00,Rainwise IP-100,2013-04-30 10:19:00,
2013-04-30 06:24:00,45.0,38.0,30.27,ENE,67,4.4,8.2,75,0.00,,,0.00,Rainwise IP-100,2013-04-30 10:24:00,
2013-04-30 06:29:00,45.0,38.0,30.27,ENE,67,4.7,8.6,75,0.00,,,0.00,Rainwise IP-100,2013-04-30 10:29:00,
2013-04-30 06:34:00,45.0,38.0,30.27,ENE,67,3.7,7.9,75,0.00,,,0.00,Rainwise IP-100,2013-04-30 10:34:00,
2013-04-30 06:39:00,45.2,38.0,30.27,ENE,67,4.9,7.2,75,0.00,,,0.00,Rainwise IP-100,2013-04-30 10:39:00,
2013-04-30 06:44:00,45.5,38.0,30.27,ENE,67,3.3,7.5,74,0.00,,,0.00,Rainwise IP-100,2013-04-30 10:44:00,
2013-04-30 06:49:00,45.9,38.0,30.27,ENE,67,4.0,8.2,73,0.00,,,0.00,Rainwise IP-100,2013-04-30 10:49:00,
2013-04-30 06:54:00,46.3,37.0,30.28,East,90,5.8,7.2,72,0.00,,,0.00,Rainwise IP-100,2013-04-30 10:54:00,
2013-04-30 06:59:00,46.7,38.0,30.28,East,90,3.3,8.2,71,0.00,,,0.00,Rainwise IP-100,2013-04-30 10:59:00,
2013-04-30 07:04:00,47.1,37.0,30.28,East,90,5.1,8.4,70,0.00,,,0.00,Rainwise IP-100,2013-04-30 11:04:00,
2013-04-30 07:09:00,47.4,38.0,30.28,ENE,67,4.4,7.9,70,0.00,,,0.00,Rainwise IP-100,2013-04-30 11:09:00,
2013-04-30 07:14:00,47.7,38.0,30.28,East,90,3.5,6.3,69,0.00,,,0.00,Rainwise IP-100,2013-04-30 11:14:00,
2013-04-30 07:19:00,48.3,38.0,30.28,ENE,67,4.2,7.2,68,0.00,,,0.00,Rainwise IP-100,2013-04-30 11:19:00,
2013-04-30 07:24:00,48.8,38.0,30.29,ENE,67,3.0,6.5,67,0.00,,,0.00,Rainwise IP-100,2013-04-30 11:24:00,
2013-04-30 07:29:00,49.4,38.0,30.29,ENE,67,2.8,7.7,65,0.00,,,0.00,Rainwise IP-100,2013-04-30 11:29:00,
2013-04-30 07:34:00,50.1,38.0,30.29,ENE,67,4.2,7.9,64,0.00,,,0.00,Rainwise IP-100,2013-04-30 11:34:00,
2013-04-30 07:39:00,50.6,38.0,30.29,ENE,67,7.0,8.6,61,0.00,,,0.00,Rainwise IP-100,2013-04-30 11:39:00,
2013-04-30 07:44:00,50.9,37.0,30.29,East,90,6.3,9.1,59,0.00,,,0.00,Rainwise IP-100,2013-04-30 11:44:00,
2013-04-30 07:49:00,51.2,37.0,30.29,East,90,3.5,8.6,58,0.00,,,0.00,Rainwise IP-100,2013-04-30 11:49:00,
2013-04-30 07:54:00,51.6,38.0,30.30,SSE,157,0.0,7.7,58,0.00,,,0.00,Rainwise IP-100,2013-04-30 11:54:00,
2013-04-30 07:59:00,52.0,37.0,30.30,ESE,112,5.8,10.0,57,0.00,,,0.00,Rainwise IP-100,2013-04-30 11:59:00,
2013-04-30 08:04:00,52.3,37.0,30.30,ENE,67,4.0,7.7,56,0.00,,,0.00,Rainwise IP-100,2013-04-30 12:04:00,
2013-04-30 08:09:00,52.7,37.0,30.30,ESE,112,1.2,7.0,55,0.00,,,0.00,Rainwise IP-100,2013-04-30 12:09:00,
2013-04-30 08:14:00,53.1,37.0,30.30,East,90,3.5,8.4,54,0.00,,,0.00,Rainwise IP-100,2013-04-30 12:14:00,
2013-04-30 08:19:00,53.9,37.0,30.30,ESE,112,4.2,6.3,53,0.00,,,0.00,Rainwise IP-100,2013-04-30 12:19:00,
2013-04-30 08:24:00,54.5,37.0,30.30,ESE,112,6.3,8.2,51,0.00,,,0.00,Rainwise IP-100,2013-04-30 12:24:00,
2013-04-30 08:29:00,54.5,36.0,30.30,ENE,67,2.3,10.5,49,0.00,,,0.00,Rainwise IP-100,2013-04-30 12:29:00,
2013-04-30 08:34:00,54.4,35.0,30.30,ESE,112,4.0,8.9,47,0.00,,,0.00,Rainwise IP-100,2013-04-30 12:34:00,
2013-04-30 08:39:00,54.7,35.0,30.30,ESE,112,7.7,7.7,47,0.00,,,0.00,Rainwise IP-100,2013-04-30 12:39:00,
2013-04-30 08:44:00,55.1,36.0,30.30,ESE,112,0.0,9.3,47,0.00,,,0.00,Rainwise IP-100,2013-04-30 12:44:00,
2013-04-30 08:49:00,55.9,36.0,30.30,East,90,1.2,5.4,47,0.00,,,0.00,Rainwise IP-100,2013-04-30 12:49:00,
2013-04-30 08:54:00,56.6,36.0,30.30,ENE,67,7.5,10.0,46,0.00,,,0.00,Rainwise IP-100,2013-04-30 12:54:00,
2013-04-30 08:59:00,56.9,36.0,30.31,East,90,2.1,8.4,45,0.00,,,0.00,Rainwise IP-100,2013-04-30 12:59:00,
2013-04-30 09:04:00,57.2,35.0,30.30,ESE,112,0.0,7.2,43,0.00,,,0.00,Rainwise IP-100,2013-04-30 13:04:00,
2013-04-30 09:09:00,57.6,36.0,30.30,SSE,157,2.1,7.9,43,0.00,,,0.00,Rainwise IP-100,2013-04-30 13:09:00,
2013-04-30 09:14:00,58.1,36.0,30.30,ESE,112,1.9,6.5,42,0.00,,,0.00,Rainwise IP-100,2013-04-30 13:14:00,
2013-04-30 09:19:00,58.4,35.0,30.30,SE,135,1.4,8.2,40,0.00,,,0.00,Rainwise IP-100,2013-04-30 13:19:00,
2013-04-30 09:24:00,58.9,35.0,30.31,ESE,112,5.1,5.1,40,0.00,,,0.00,Rainwise IP-100,2013-04-30 13:24:00,
2013-04-30 09:29:00,59.1,35.0,30.30,ESE,112,3.5,7.9,39,0.00,,,0.00,Rainwise IP-100,2013-04-30 13:29:00,
2013-04-30 09:34:00,59.2,35.0,30.30,SE,135,2.6,7.5,39,0.00,,,0.00,Rainwise IP-100,2013-04-30 13:34:00,
2013-04-30 09:39:00,59.6,35.0,30.31,East,90,2.8,8.2,39,0.00,,,0.00,Rainwise IP-100,2013-04-30 13:39:00,
2013-04-30 09:44:00,59.8,35.0,30.31,East,90,4.0,8.6,38,0.00,,,0.00,Rainwise IP-100,2013-04-30 13:44:00,
2013-04-30 09:49:00,59.9,33.0,30.31,SSE,157,6.8,7.9,37,0.00,,,0.00,Rainwise IP-100,2013-04-30 13:49:00,
2013-04-30 09:54:00,59.6,33.0,30.31,ESE,112,1.9,8.2,37,0.00,,,0.00,Rainwise IP-100,2013-04-30 13:54:00,
2013-04-30 09:59:00,59.7,32.0,30.31,ENE,67,2.3,7.0,36,0.00,,,0.00,Rainwise IP-100,2013-04-30 13:59:00,
2013-04-30 10:04:00,60.2,33.0,30.31,ENE,67,3.7,6.8,36,0.00,,,0.00,Rainwise IP-100,2013-04-30 14:04:00,
2013-04-30 10:09:00,60.9,33.0,30.31,SE,135,2.1,7.0,36,0.00,,,0.00,Rainwise IP-100,2013-04-30 14:09:00,
2013-04-30 10:14:00,61.6,33.0,30.31,ESE,112,4.9,7.7,35,0.00,,,0.00,Rainwise IP-100,2013-04-30 14:14:00,
2013-04-30 10:19:00,61.7,32.0,30.31,ESE,112,6.5,6.5,33,0.00,,,0.00,Rainwise IP-100,2013-04-30 14:19:00,
2013-04-30 10:24:00,61.6,31.0,30.31,East,90,3.5,8.2,31,0.00,,,0.00,Rainwise IP-100,2013-04-30 14:24:00,
2013-04-30 10:29:00,61.4,31.0,30.31,ESE,112,2.6,8.9,30,0.00,,,0.00,Rainwise IP-100,2013-04-30 14:29:00,
2013-04-30 10:34:00,62.2,31.0,30.31,ESE,112,0.0,7.5,31,0.00,,,0.00,Rainwise IP-100,2013-04-30 14:34:00,
2013-04-30 10:39:00,63.0,31.0,30.31,ENE,67,3.3,4.7,30,0.00,,,0.00,Rainwise IP-100,2013-04-30 14:39:00,
2013-04-30 10:44:00,63.1,31.0,30.31,SSE,157,0.0,5.8,29,0.00,,,0.00,Rainwise IP-100,2013-04-30 14:44:00,
2013-04-30 10:49:00,63.9,31.0,30.31,ESE,112,1.4,7.7,29,0.00,,,0.00,Rainwise IP-100,2013-04-30 14:49:00,
2013-04-30 10:54:00,63.8,31.0,30.30,ESE,112,2.6,9.3,29,0.00,,,0.00,Rainwise IP-100,2013-04-30 14:54:00,
2013-04-30 10:59:00,63.3,31.0,30.31,SSE,157,1.9,13.1,29,0.00,,,0.00,Rainwise IP-100,2013-04-30 14:59:00,
2013-04-30 11:04:00,63.1,31.0,30.30,SSE,157,0.0,11.7,29,0.00,,,0.00,Rainwise IP-100,2013-04-30 15:04:00,
2013-04-30 11:09:00,62.6,31.0,30.31,SE,135,6.3,11.2,29,0.00,,,0.00,Rainwise IP-100,2013-04-30 15:09:00,
2013-04-30 11:14:00,62.2,31.0,30.31,SSE,157,4.9,14.2,30,0.00,,,0.00,Rainwise IP-100,2013-04-30 15:14:00,
2013-04-30 11:19:00,62.0,31.0,30.30,SSE,157,6.1,13.5,31,0.00,,,0.00,Rainwise IP-100,2013-04-30 15:19:00,
2013-04-30 11:24:00,61.7,31.0,30.30,SSW,202,2.6,13.1,31,0.00,,,0.00,Rainwise IP-100,2013-04-30 15:24:00,
2013-04-30 11:29:00,61.7,31.0,30.30,SSE,157,3.0,10.5,30,0.00,,,0.00,Rainwise IP-100,2013-04-30 15:29:00,
2013-04-30 11:34:00,61.7,31.0,30.30,SSE,157,5.8,11.7,30,0.00,,,0.00,Rainwise IP-100,2013-04-30 15:34:00,
2013-04-30 11:39:00,61.4,31.0,30.30,SSE,157,9.3,13.1,30,0.00,,,0.00,Rainwise IP-100,2013-04-30 15:39:00,
2013-04-30 11:44:00,61.3,31.0,30.30,South,180,4.0,11.9,30,0.00,,,0.00,Rainwise IP-100,2013-04-30 15:44:00,
2013-04-30 11:49:00,61.4,29.0,30.30,SSW,202,2.6,12.6,29,0.00,,,0.00,Rainwise IP-100,2013-04-30 15:49:00,
2013-04-30 11:54:00,61.8,29.0,30.30,South,180,3.0,11.7,28,0.00,,,0.00,Rainwise IP-100,2013-04-30 15:54:00,
2013-04-30 11:59:00,61.8,29.0,30.30,East,90,1.4,11.2,28,0.00,,,0.00,Rainwise IP-100,2013-04-30 15:59:00,
2013-04-30 12:04:00,61.6,28.0,30.30,ESE,112,6.5,12.1,28,0.00,,,0.00,Rainwise IP-100,2013-04-30 16:04:00,
2013-04-30 12:09:00,60.9,28.0,30.30,SSE,157,9.6,10.3,28,0.00,,,0.00,Rainwise IP-100,2013-04-30 16:09:00,
2013-04-30 12:14:00,60.3,28.0,30.30,SSE,157,10.0,11.4,28,0.00,,,0.00,Rainwise IP-100,2013-04-30 16:14:00,
2013-04-30 12:19:00,60.3,28.0,30.30,SE,135,3.0,14.5,28,0.00,,,0.00,Rainwise IP-100,2013-04-30 16:19:00,
2013-04-30 12:24:00,60.4,26.0,30.30,SSE,157,3.7,10.3,27,0.00,,,0.00,Rainwise IP-100,2013-04-30 16:24:00,
2013-04-30 12:29:00,61.0,28.0,30.29,ESE,112,9.3,13.3,27,0.00,,,0.00,Rainwise IP-100,2013-04-30 16:29:00,
2013-04-30 12:34:00,61.5,28.0,30.30,SE,135,3.7,11.2,28,0.00,,,0.00,Rainwise IP-100,2013-04-30 16:34:00,
2013-04-30 12:39:00,61.4,28.0,30.30,SSE,157,9.1,13.3,27,0.00,,,0.00,Rainwise IP-100,2013-04-30 16:39:00,
2013-04-30 12:44:00,61.5,28.0,30.30,SE,135,3.7,12.4,28,0.00,,,0.00,Rainwise IP-100,2013-04-30 16:44:00,
2013-04-30 12:49:00,61.8,28.0,30.30,SE,135,6.3,12.6,27,0.00,,,0.00,Rainwise IP-100,2013-04-30 16:49:00,
2013-04-30 12:54:00,61.8,28.0,30.30,SSE,157,6.8,12.6,27,0.00,,,0.00,Rainwise IP-100,2013-04-30 16:54:00,
2013-04-30 12:59:00,61.5,28.0,30.30,SSE,157,2.1,16.1,27,0.00,,,0.00,Rainwise IP-100,2013-04-30 16:59:00,
2013-04-30 13:04:00,61.1,28.0,30.29,SSW,202,11.2,13.1,27,0.00,,,0.00,Rainwise IP-100,2013-04-30 17:04:00,
2013-04-30 13:09:00,61.1,29.0,30.30,South,180,3.3,14.9,29,0.00,,,0.00,Rainwise IP-100,2013-04-30 17:09:00,
2013-04-30 13:14:00,60.6,29.0,30.30,ESE,112,4.2,14.2,30,0.00,,,0.00,Rainwise IP-100,2013-04-30 17:14:00,
2013-04-30 13:19:00,60.3,29.0,30.30,East,90,8.4,14.2,30,0.00,,,0.00,Rainwise IP-100,2013-04-30 17:19:00,
2013-04-30 13:24:00,60.8,29.0,30.30,SE,135,7.0,15.6,30,0.00,,,0.00,Rainwise IP-100,2013-04-30 17:24:00,
2013-04-30 13:29:00,60.9,29.0,30.30,ESE,112,4.9,12.4,29,0.00,,,0.00,Rainwise IP-100,2013-04-30 17:29:00,
2013-04-30 13:34:00,60.4,28.0,30.30,South,180,3.5,13.1,29,0.00,,,0.00,Rainwise IP-100,2013-04-30 17:34:00,
2013-04-30 13:39:00,60.5,28.0,30.30,SSE,157,2.3,10.5,29,0.00,,,0.00,Rainwise IP-100,2013-04-30 17:39:00,
2013-04-30 13:44:00,61.2,29.0,30.29,ESE,112,3.5,11.4,29,0.00,,,0.00,Rainwise IP-100,2013-04-30 17:44:00,
2013-04-30 13:49:00,61.4,28.0,30.30,South,180,9.1,14.5,28,0.00,,,0.00,Rainwise IP-100,2013-04-30 17:49:00,
2013-04-30 13:54:00,60.8,28.0,30.29,SSE,157,5.1,13.1,28,0.00,,,0.00,Rainwise IP-100,2013-04-30 17:54:00,
2013-04-30 13:59:00,60.4,29.0,30.30,ESE,112,5.8,13.1,30,0.00,,,0.00,Rainwise IP-100,2013-04-30 17:59:00,
2013-04-30 14:04:00,60.2,29.0,30.30,SSE,157,9.3,12.4,31,0.00,,,0.00,Rainwise IP-100,2013-04-30 18:04:00,
2013-04-30 14:09:00,59.6,29.0,30.29,SE,135,6.1,13.1,31,0.00,,,0.00,Rainwise IP-100,2013-04-30 18:09:00,
2013-04-30 14:14:00,59.8,31.0,30.30,SE,135,5.4,13.1,32,0.00,,,0.00,Rainwise IP-100,2013-04-30 18:14:00,
2013-04-30 14:19:00,60.1,31.0,30.30,SE,135,4.9,11.2,32,0.00,,,0.00,Rainwise IP-100,2013-04-30 18:19:00,
2013-04-30 14:24:00,59.7,29.0,30.30,SE,135,8.6,12.4,32,0.00,,,0.00,Rainwise IP-100,2013-04-30 18:24:00,
2013-04-30 14:29:00,59.6,29.0,30.30,SSE,157,3.5,11.0,32,0.00,,,0.00,Rainwise IP-100,2013-04-30 18:29:00,
2013-04-30 14:34:00,59.7,29.0,30.30,SSE,157,3.7,11.9,31,0.00,,,0.00,Rainwise IP-100,2013-04-30 18:34:00,
2013-04-30 14:39:00,59.4,29.0,30.30,SSE,157,4.9,10.3,31,0.00,,,0.00,Rainwise IP-100,2013-04-30 18:39:00,
2013-04-30 14:44:00,59.6,29.0,30.30,SSE,157,0.0,11.4,32,0.00,,,0.00,Rainwise IP-100,2013-04-30 18:44:00,
2013-04-30 14:49:00,59.8,31.0,30.30,SE,135,3.3,11.0,32,0.00,,,0.00,Rainwise IP-100,2013-04-30 18:49:00,
2013-04-30 14:54:00,59.6,29.0,30.30,ESE,112,2.6,13.5,32,0.00,,,0.00,Rainwise IP-100,2013-04-30 18:54:00,
2013-04-30 14:59:00,60.0,31.0,30.30,SE,135,11.2,12.1,32,0.00,,,0.00,Rainwise IP-100,2013-04-30 18:59:00,
2013-04-30 15:04:00,60.2,31.0,30.30,East,90,4.4,11.2,32,0.00,,,0.00,Rainwise IP-100,2013-04-30 19:04:00,
2013-04-30 15:09:00,59.8,29.0,30.30,East,90,9.3,15.6,31,0.00,,,0.00,Rainwise IP-100,2013-04-30 19:09:00,
2013-04-30 15:14:00,59.8,29.0,30.29,SSE,157,11.2,12.8,30,0.00,,,0.00,Rainwise IP-100,2013-04-30 19:14:00,
2013-04-30 15:19:00,59.9,29.0,30.30,SSE,157,6.3,12.1,30,0.00,,,0.00,Rainwise IP-100,2013-04-30 19:19:00,
2013-04-30 15:24:00,59.3,28.0,30.29,East,90,10.0,12.8,29,0.00,,,0.00,Rainwise IP-100,2013-04-30 19:24:00,
2013-04-30 15:29:00,58.9,28.0,30.29,East,90,1.9,12.8,29,0.00,,,0.00,Rainwise IP-100,2013-04-30 19:29:00,
2013-04-30 15:34:00,59.1,28.0,30.29,SSE,157,9.6,12.1,30,0.00,,,0.00,Rainwise IP-100,2013-04-30 19:34:00,
2013-04-30 15:39:00,59.5,28.0,30.29,East,90,7.5,11.7,30,0.00,,,0.00,Rainwise IP-100,2013-04-30 19:39:00,
2013-04-30 15:44:00,59.8,28.0,30.29,SE,135,7.7,10.7,29,0.00,,,0.00,Rainwise IP-100,2013-04-30 19:44:00,
2013-04-30 15:49:00,59.5,28.0,30.29,ESE,112,9.8,12.1,29,0.00,,,0.00,Rainwise IP-100,2013-04-30 19:49:00,
2013-04-30 15:54:00,59.2,28.0,30.29,SE,135,9.1,13.1,29,0.00,,,0.00,Rainwise IP-100,2013-04-30 19:54:00,
2013-04-30 15:59:00,59.3,26.0,30.29,SE,135,5.4,13.3,28,0.00,,,0.00,Rainwise IP-100,2013-04-30 19:59:00,
2013-04-30 16:04:00,59.4,26.0,30.30,East,90,6.3,10.7,28,0.00,,,0.00,Rainwise IP-100,2013-04-30 20:04:00,
2013-04-30 16:09:00,59.7,26.0,30.29,East,90,7.9,10.3,28,0.00,,,0.00,Rainwise IP-100,2013-04-30 20:09:00,
2013-04-30 16:14:00,59.7,26.0,30.29,SSE,157,4.7,11.4,27,0.00,,,0.00,Rainwise IP-100,2013-04-30 20:14:00,
2013-04-30 16:19:00,59.8,26.0,30.30,SE,135,8.6,11.0,27,0.00,,,0.00,Rainwise IP-100,2013-04-30 20:19:00,
2013-04-30 16:24:00,60.1,26.0,30.30,ESE,112,4.2,11.4,27,0.00,,,0.00,Rainwise IP-100,2013-04-30 20:24:00,
2013-04-30 16:29:00,60.3,26.0,30.29,ESE,112,3.5,11.0,27,0.00,,,0.00,Rainwise IP-100,2013-04-30 20:29:00,
2013-04-30 16:34:00,60.0,26.0,30.29,ESE,112,8.2,9.8,27,0.00,,,0.00,Rainwise IP-100,2013-04-30 20:34:00,
2013-04-30 16:39:00,59.6,24.0,30.29,ESE,112,9.3,11.7,26,0.00,,,0.00,Rainwise IP-100,2013-04-30 20:39:00,
2013-04-30 16:44:00,59.9,26.0,30.29,East,90,5.6,11.2,27,0.00,,,0.00,Rainwise IP-100,2013-04-30 20:44:00,
2013-04-30 16:49:00,59.8,26.0,30.29,SSE,157,4.2,12.8,27,0.00,,,0.00,Rainwise IP-100,2013-04-30 20:49:00,
2013-04-30 16:54:00,59.5,26.0,30.30,SE,135,4.7,10.3,27,0.00,,,0.00,Rainwise IP-100,2013-04-30 20:54:00,
2013-04-30 16:59:00,59.4,26.0,30.29,SSE,157,7.0,9.1,27,0.00,,,0.00,Rainwise IP-100,2013-04-30 20:59:00,
2013-04-30 17:04:00,59.1,26.0,30.29,South,180,1.9,10.3,28,0.00,,,0.00,Rainwise IP-100,2013-04-30 21:04:00,
2013-04-30 17:09:00,58.9,26.0,30.30,SSE,157,4.0,11.0,28,0.00,,,0.00,Rainwise IP-100,2013-04-30 21:09:00,
2013-04-30 17:14:00,59.3,28.0,30.29,SSE,157,4.9,10.5,29,0.00,,,0.00,Rainwise IP-100,2013-04-30 21:14:00,
2013-04-30 17:19:00,59.0,28.0,30.30,SSE,157,6.5,10.7,29,0.00,,,0.00,Rainwise IP-100,2013-04-30 21:19:00,
2013-04-30 17:24:00,58.6,26.0,30.30,SSE,157,4.0,10.7,28,0.00,,,0.00,Rainwise IP-100,2013-04-30 21:24:00,
2013-04-30 17:29:00,58.7,26.0,30.30,SSW,202,3.3,10.7,28,0.00,,,0.00,Rainwise IP-100,2013-04-30 21:29:00,
2013-04-30 17:34:00,59.1,26.0,30.30,East,90,2.8,9.1,28,0.00,,,0.00,Rainwise IP-100,2013-04-30 21:34:00,
2013-04-30 17:39:00,59.2,28.0,30.30,ESE,112,2.1,10.7,29,0.00,,,0.00,Rainwise IP-100,2013-04-30 21:39:00,
2013-04-30 17:44:00,59.0,26.0,30.30,ESE,112,3.7,7.7,28,0.00,,,0.00,Rainwise IP-100,2013-04-30 21:44:00,
2013-04-30 17:49:00,58.8,26.0,30.30,SSW,202,1.9,7.9,28,0.00,,,0.00,Rainwise IP-100,2013-04-30 21:49:00,
2013-04-30 17:54:00,58.6,26.0,30.30,ENE,67,3.0,10.0,28,0.00,,,0.00,Rainwise IP-100,2013-04-30 21:54:00,
2013-04-30 17:59:00,58.4,26.0,30.30,South,180,1.4,11.4,28,0.00,,,0.00,Rainwise IP-100,2013-04-30 21:59:00,
2013-04-30 18:04:00,57.9,26.0,30.30,SE,135,5.6,10.0,28,0.00,,,0.00,Rainwise IP-100,2013-04-30 22:04:00,
2013-04-30 18:09:00,57.7,26.0,30.30,ESE,112,1.4,10.0,29,0.00,,,0.00,Rainwise IP-100,2013-04-30 22:09:00,
2013-04-30 18:14:00,57.5,26.0,30.30,ESE,112,2.6,9.3,30,0.00,,,0.00,Rainwise IP-100,2013-04-30 22:14:00,
2013-04-30 18:19:00,57.4,28.0,30.30,ESE,112,5.1,11.0,31,0.00,,,0.00,Rainwise IP-100,2013-04-30 22:19:00,
2013-04-30 18:24:00,57.4,28.0,30.30,ESE,112,3.7,9.6,31,0.00,,,0.00,Rainwise IP-100,2013-04-30 22:24:00,
2013-04-30 18:29:00,57.5,28.0,30.30,ENE,67,6.8,9.6,32,0.00,,,0.00,Rainwise IP-100,2013-04-30 22:29:00,
2013-04-30 18:34:00,57.1,28.0,30.30,SSE,157,1.4,11.2,31,0.00,,,0.00,Rainwise IP-100,2013-04-30 22:34:00,
2013-04-30 18:39:00,56.6,26.0,30.30,SE,135,4.2,8.6,31,0.00,,,0.00,Rainwise IP-100,2013-04-30 22:39:00,
2013-04-30 18:44:00,56.4,26.0,30.31,East,90,2.6,8.2,31,0.00,,,0.00,Rainwise IP-100,2013-04-30 22:44:00,
2013-04-30 18:49:00,56.4,26.0,30.30,SE,135,4.0,6.8,31,0.00,,,0.00,Rainwise IP-100,2013-04-30 22:49:00,
2013-04-30 18:54:00,56.3,28.0,30.31,SE,135,2.6,6.5,32,0.00,,,0.00,Rainwise IP-100,2013-04-30 22:54:00,
2013-04-30 18:59:00,55.7,28.0,30.31,ESE,112,1.4,5.8,33,0.00,,,0.00,Rainwise IP-100,2013-04-30 22:59:00,
2013-04-30 19:04:00,55.6,28.0,30.31,ESE,112,2.3,6.3,34,0.00,,,0.00,Rainwise IP-100,2013-04-30 23:04:00,
2013-04-30 19:09:00,55.3,28.0,30.31,ESE,112,3.3,4.4,34,0.00,,,0.00,Rainwise IP-100,2013-04-30 23:09:00,
2013-04-30 19:14:00,54.5,28.0,30.32,East,90,2.3,5.6,35,0.00,,,0.00,Rainwise IP-100,2013-04-30 23:14:00,
2013-04-30 19:19:00,53.9,28.0,30.31,ESE,112,4.9,6.1,36,0.00,,,0.00,Rainwise IP-100,2013-04-30 23:19:00,
2013-04-30 19:24:00,53.5,29.0,30.32,ENE,67,2.8,5.6,38,0.00,,,0.00,Rainwise IP-100,2013-04-30 23:24:00,
2013-04-30 19:29:00,52.9,29.0,30.32,ESE,112,2.1,4.9,39,0.00,,,0.00,Rainwise IP-100,2013-04-30 23:29:00,
2013-04-30 19:34:00,52.4,29.0,30.31,ESE,112,3.7,5.6,40,0.00,,,0.00,Rainwise IP-100,2013-04-30 23:34:00,
2013-04-30 19:39:00,52.0,29.0,30.31,ESE,112,2.8,7.2,42,0.00,,,0.00,Rainwise IP-100,2013-04-30 23:39:00,
2013-04-30 19:44:00,51.6,31.0,30.31,ESE,112,4.7,5.6,43,0.00,,,0.00,Rainwise IP-100,2013-04-30 23:44:00,
2013-04-30 19:49:00,51.2,31.0,30.31,ESE,112,2.6,5.6,44,0.00,,,0.00,Rainwise IP-100,2013-04-30 23:49:00,
2013-04-30 19:54:00,50.8,31.0,30.32,SE,135,1.9,5.1,45,0.00,,,0.00,Rainwise IP-100,2013-04-30 23:54:00,
2013-04-30 19:59:00,50.4,31.0,30.32,SE,135,2.6,5.1,46,0.00,,,0.00,Rainwise IP-100,2013-04-30 23:59:00,
2013-04-30 20:04:00,49.9,31.0,30.32,SE,135,2.1,4.4,47,0.00,,,0.00,Rainwise IP-100,2013-05-01 00:04:00,
2013-04-30 20:09:00,49.5,31.0,30.31,ESE,112,3.3,5.4,47,0.00,,,0.00,Rainwise IP-100,2013-05-01 00:09:00,
2013-04-30 20:14:00,49.5,31.0,30.32,ESE,112,4.0,5.1,48,0.00,,,0.00,Rainwise IP-100,2013-05-01 00:14:00,
2013-04-30 20:19:00,49.6,31.0,30.31,ESE,112,4.2,6.8,48,0.00,,,0.00,Rainwise IP-100,2013-05-01 00:19:00,
2013-04-30 20:24:00,49.5,31.0,30.32,East,90,2.3,7.0,47,0.00,,,0.00,Rainwise IP-100,2013-05-01 00:24:00,
2013-04-30 20:29:00,49.4,29.0,30.32,SE,135,2.8,6.5,47,0.00,,,0.00,Rainwise IP-100,2013-05-01 00:29:00,
2013-04-30 20:34:00,49.3,29.0,30.32,ESE,112,2.8,7.2,47,0.00,,,0.00,Rainwise IP-100,2013-05-01 00:34:00,
2013-04-30 20:39:00,49.1,29.0,30.33,SE,135,2.3,6.5,47,0.00,,,0.00,Rainwise IP-100,2013-05-01 00:39:00,
2013-04-30 20:44:00,48.9,29.0,30.33,SE,135,1.4,5.1,47,0.00,,,0.00,Rainwise IP-100,2013-05-01 00:44:00,
2013-04-30 20:49:00,48.5,29.0,30.33,SE,135,1.4,3.7,47,0.00,,,0.00,Rainwise IP-100,2013-05-01 00:49:00,
2013-04-30 20:54:00,48.1,29.0,30.33,SSE,157,0.0,3.3,48,0.00,,,0.00,Rainwise IP-100,2013-05-01 00:54:00,
2013-04-30 20:59:00,47.7,29.0,30.33,SSE,157,1.2,1.4,48,0.00,,,0.00,Rainwise IP-100,2013-05-01 00:59:00,
2013-04-30 21:04:00,47.4,29.0,30.33,South,180,1.2,2.3,49,0.00,,,0.00,Rainwise IP-100,2013-05-01 01:04:00,
2013-04-30 21:09:00,47.2,29.0,30.34,South,180,1.2,1.6,51,0.00,,,0.00,Rainwise IP-100,2013-05-01 01:09:00,
2013-04-30 21:14:00,47.2,31.0,30.33,South,180,0.0,1.6,53,0.00,,,0.00,Rainwise IP-100,2013-05-01 01:14:00,
2013-04-30 21:19:00,47.1,31.0,30.33,South,180,0.0,1.4,54,0.00,,,0.00,Rainwise IP-100,2013-05-01 01:19:00,
2013-04-30 21:24:00,46.9,32.0,30.33,ESE,112,1.6,3.3,55,0.00,,,0.00,Rainwise IP-100,2013-05-01 01:24:00,
2013-04-30 21:29:00,46.6,32.0,30.33,SE,135,2.8,4.9,56,0.00,,,0.00,Rainwise IP-100,2013-05-01 01:29:00,
2013-04-30 21:34:00,46.5,33.0,30.33,ESE,112,2.8,6.1,58,0.00,,,0.00,Rainwise IP-100,2013-05-01 01:34:00,
2013-04-30 21:39:00,46.7,33.0,30.33,SE,135,2.8,6.3,59,0.00,,,0.00,Rainwise IP-100,2013-05-01 01:39:00,
2013-04-30 21:44:00,47.0,33.0,30.33,ESE,112,3.3,6.8,59,0.00,,,0.00,Rainwise IP-100,2013-05-01 01:44:00,
2013-04-30 21:49:00,47.2,33.0,30.33,East,90,5.1,6.8,60,0.00,,,0.00,Rainwise IP-100,2013-05-01 01:49:00,
2013-04-30 21:54:00,47.2,33.0,30.33,ESE,112,3.7,7.5,59,0.00,,,0.00,Rainwise IP-100,2013-05-01 01:54:00,
2013-04-30 21:59:00,47.2,33.0,30.33,SE,135,4.4,7.7,59,0.00,,,0.00,Rainwise IP-100,2013-05-01 01:59:00,
2013-04-30 22:04:00,47.3,33.0,30.33,ESE,112,2.8,6.3,58,0.00,,,0.00,Rainwise IP-100,2013-05-01 02:04:00,
2013-04-30 22:09:00,47.3,33.0,30.33,East,90,4.7,5.4,57,0.00,,,0.00,Rainwise IP-100,2013-05-01 02:09:00,
2013-04-30 22:14:00,47.2,32.0,30.33,ESE,112,1.4,6.1,56,0.00,,,0.00,Rainwise IP-100,2013-05-01 02:14:00,
2013-04-30 22:19:00,47.1,32.0,30.33,East,90,1.2,4.9,56,0.00,,,0.00,Rainwise IP-100,2013-05-01 02:19:00,
2013-04-30 22:24:00,47.0,32.0,30.33,SE,135,1.2,3.3,56,0.00,,,0.00,Rainwise IP-100,2013-05-01 02:24:00,
2013-04-30 22:29:00,46.7,32.0,30.33,ESE,112,1.6,3.7,56,0.00,,,0.00,Rainwise IP-100,2013-05-01 02:29:00,
2013-04-30 22:34:00,46.5,32.0,30.33,ESE,112,2.6,3.7,57,0.00,,,0.00,Rainwise IP-100,2013-05-01 02:34:00,
2013-04-30 22:39:00,46.4,32.0,30.33,ESE,112,1.4,3.7,58,0.00,,,0.00,Rainwise IP-100,2013-05-01 02:39:00,
2013-04-30 22:44:00,46.4,32.0,30.33,ESE,112,4.0,4.0,58,0.00,,,0.00,Rainwise IP-100,2013-05-01 02:44:00,
2013-04-30 22:49:00,46.5,33.0,30.33,ESE,112,2.3,4.2,58,0.00,,,0.00,Rainwise IP-100,2013-05-01 02:49:00,
2013-04-30 22:54:00,46.4,32.0,30.33,East,90,2.8,3.7,58,0.00,,,0.00,Rainwise IP-100,2013-05-01 02:54:00,
2013-04-30 22:59:00,46.4,32.0,30.33,ESE,112,2.6,6.1,58,0.00,,,0.00,Rainwise IP-100,2013-05-01 02:59:00,
2013-04-30 23:04:00,46.5,33.0,30.33,SE,135,3.5,6.3,59,0.00,,,0.00,Rainwise IP-100,2013-05-01 03:04:00,
2013-04-30 23:09:00,46.7,33.0,30.33,East,90,3.3,5.6,59,0.00,,,0.00,Rainwise IP-100,2013-05-01 03:09:00,
2013-04-30 23:14:00,46.7,33.0,30.33,East,90,2.6,7.9,59,0.00,,,0.00,Rainwise IP-100,2013-05-01 03:14:00,
2013-04-30 23:19:00,46.6,33.0,30.33,ESE,112,4.4,7.0,59,0.00,,,0.00,Rainwise IP-100,2013-05-01 03:19:00,
2013-04-30 23:24:00,46.5,33.0,30.33,East,90,3.5,7.5,59,0.00,,,0.00,Rainwise IP-100,2013-05-01 03:24:00,
2013-04-30 23:29:00,46.6,33.0,30.33,ESE,112,3.3,6.3,59,0.00,,,0.00,Rainwise IP-100,2013-05-01 03:29:00,
2013-04-30 23:34:00,46.5,33.0,30.33,ESE,112,1.6,5.8,59,0.00,,,0.00,Rainwise IP-100,2013-05-01 03:34:00,
2013-04-30 23:39:00,46.4,32.0,30.33,East,90,2.6,5.8,59,0.00,,,0.00,Rainwise IP-100,2013-05-01 03:39:00,
2013-04-30 23:42:00,46.4,32.0,30.33,ESE,112,1.9,5.1,59,0.00,,,0.00,Rainwise IP-100,2013-05-01 03:42:00,
2013-04-30 23:47:00,46.3,33.0,30.33,East,90,3.5,6.8,60,0.00,,,0.00,Rainwise IP-100,2013-05-01 03:47:00,
2013-04-30 23:52:00,46.3,33.0,30.34,East,90,1.9,6.8,60,0.00,,,0.00,Rainwise IP-100,2013-05-01 03:52:00,
2013-04-30 23:57:00,46.2,33.0,30.33,East,90,2.8,5.4,61,0.00,,,0.00,Rainwise IP-100,2013-05-01 03:57:00,